Rechercher aéroport 
image banner adimage banner adimage banner ad
image banner ad

O55 - Southard Field

Situé à Bieber, United States

ICAO - O55, IATA -

Données fournies par Airmate  

Information générale

Coordonnées: N41°8'22" W121°7'27"
Élévation : 4163 feet MSL.
Variation magnétique : 17° East
Voir autres Aéroports à California

Données opérationnelles

Special qualification required
Heure actuelle UTC:
Heure actuelle locale:
Météo à : KAAT - Alturas Muni ( 60 km )
METAR: KAAT 262155Z AUTO 12004KT 9SM CLR 32/07 A3001 RMK AO2 SLP108 T03170072
Voir NOTAMs / SUP AIP / TFR affectant cet aéroport [VIEW]
Fréquences de communication: [VIEW]

Pistes:

Identifiant RWYQFULongueur (ft)Largeur (ft)SurfaceLDA (ft)
04298035ASPH
22298035ASPH

Coordonnées de l'aéroport

Adresse: Bieber United States

Vue satellite de O55